createdAt,value
2022-11-18T00:01:22.672Z,99414.72
2022-11-18T00:03:51.930Z,99413.88
2022-11-18T00:06:24.195Z,99411.31
2022-11-18T00:08:53.821Z,99418.38
2022-11-18T00:11:45.368Z,99419.38
2022-11-18T00:14:23.401Z,99429.97
2022-11-18T00:17:03.797Z,99426.47
2022-11-18T00:19:37.655Z,99430.94
2022-11-18T00:22:08.307Z,99429.25
2022-11-18T00:24:35.747Z,99422.28
2022-11-18T00:27:03.439Z,99431.00
2022-11-18T00:29:31.633Z,99430.13
2022-11-18T00:31:59.084Z,99431.91
2022-11-18T00:34:26.955Z,99439.78
2022-11-18T00:36:54.347Z,99452.84
2022-11-18T00:39:22.824Z,99451.09
2022-11-18T00:42:09.044Z,99451.09
2022-11-18T00:44:36.862Z,99459.03
2022-11-18T00:47:05.074Z,99458.16
2022-11-18T00:49:32.610Z,99459.91
2022-11-18T00:52:01.254Z,99456.47
2022-11-18T00:54:28.649Z,99463.47
2022-11-18T00:56:56.109Z,99473.84
2022-11-18T00:59:23.570Z,99472.13
2022-11-18T01:01:51.246Z,99471.13
2022-11-18T01:04:18.811Z,99464.13
2022-11-18T01:06:46.212Z,99473.69
2022-11-18T01:09:13.887Z,99482.44
2022-11-18T01:12:00.136Z,99479.78
2022-11-18T01:14:27.636Z,99479.78
2022-11-18T01:16:56.753Z,99495.44
2022-11-18T01:19:25.865Z,99497.06
2022-11-18T01:21:53.705Z,99488.28
2022-11-18T01:24:21.282Z,99499.50
2022-11-18T01:26:48.743Z,99500.31
2022-11-18T01:29:17.514Z,99501.94
2022-11-18T01:32:01.796Z,99504.50
2022-11-18T01:34:32.459Z,99508.75
2022-11-18T01:36:59.891Z,99506.03
2022-11-18T01:39:27.542Z,99518.16
2022-11-18T01:41:54.971Z,99518.06
2022-11-18T01:45:09.843Z,99518.84
2022-11-18T01:47:44.781Z,99524.94
2022-11-18T01:50:15.997Z,99523.16
2022-11-18T01:52:48.779Z,99530.03
2022-11-18T01:55:26.021Z,99522.06
2022-11-18T01:58:05.041Z,99530.66
2022-11-18T02:00:32.630Z,99534.13
2022-11-18T02:03:02.369Z,99534.03
2022-11-18T02:05:33.707Z,99534.03
2022-11-18T02:08:03.013Z,99537.44
2022-11-18T02:10:30.416Z,99546.97
2022-11-18T02:12:59.043Z,99541.59
2022-11-18T02:16:05.736Z,99549.34
2022-11-18T02:18:58.301Z,99545.84
2022-11-18T02:22:01.852Z,99553.66
2022-11-18T02:24:48.773Z,99557.13
2022-11-18T02:27:34.781Z,99558.88
2022-11-18T02:30:15.796Z,99564.13
2022-11-18T02:33:10.805Z,99564.03
2022-11-18T02:35:53.860Z,99567.53
2022-11-18T02:38:31.144Z,99558.78
2022-11-18T02:41:06.539Z,99570.06
2022-11-18T02:44:03.827Z,99569.97
2022-11-18T02:46:37.644Z,99567.28
2022-11-18T02:49:18.281Z,99572.44
2022-11-18T02:51:50.334Z,99566.25
2022-11-18T02:54:21.387Z,99571.41
2022-11-18T02:56:52.399Z,99566.06
2022-11-18T02:59:20.518Z,99566.06
2022-11-18T03:01:48.535Z,99568.63
2022-11-18T03:04:18.133Z,99568.56
2022-11-18T03:07:02.438Z,99579.00
2022-11-18T03:09:36.588Z,99576.31
2022-11-18T03:12:40.724Z,99574.47
2022-11-18T03:15:48.884Z,99584.91
2022-11-18T03:18:37.782Z,99589.31
2022-11-18T03:21:17.889Z,99590.09
2022-11-18T03:24:04.211Z,99586.53
2022-11-18T03:26:44.572Z,99600.53
2022-11-18T03:29:29.085Z,99598.69
2022-11-18T03:32:12.761Z,99604.78
2022-11-18T03:34:47.334Z,99610.81
2022-11-18T03:37:20.130Z,99608.19
2022-11-18T03:39:58.730Z,99613.38
2022-11-18T03:42:39.092Z,99620.25
2022-11-18T03:45:18.678Z,99622.88
2022-11-18T03:47:57.560Z,99623.69
2022-11-18T03:50:35.779Z,99630.63
2022-11-18T03:53:04.174Z,99632.41
2022-11-18T03:55:40.389Z,99634.97
2022-11-18T03:58:31.667Z,99639.22
2022-11-18T04:01:16.163Z,99638.38
2022-11-18T04:03:45.315Z,99642.69
2022-11-18T04:06:43.098Z,99644.41
2022-11-18T04:09:29.821Z,99638.22
2022-11-18T04:12:08.674Z,99643.47
2022-11-18T04:14:40.250Z,99649.59
2022-11-18T04:17:13.785Z,99654.97
2022-11-18T04:19:41.666Z,99652.28
2022-11-18T04:22:10.470Z,99650.44
2022-11-18T04:24:38.207Z,99660.88
2022-11-18T04:27:06.663Z,99666.03
2022-11-18T04:29:34.345Z,99658.19
2022-11-18T04:32:02.751Z,99659.09
2022-11-18T04:34:31.160Z,99673.00
2022-11-18T04:36:59.123Z,99671.28
2022-11-18T04:39:26.596Z,99676.53
2022-11-18T04:41:57.060Z,99676.47
2022-11-18T04:44:33.893Z,99685.16
2022-11-18T04:47:05.248Z,99689.53
2022-11-18T04:49:34.686Z,99690.44
2022-11-18T04:52:02.590Z,99700.09
2022-11-18T04:54:30.034Z,99699.25
2022-11-18T04:56:57.877Z,99703.66
2022-11-18T04:59:29.446Z,99714.06
2022-11-18T05:01:58.269Z,99720.22
2022-11-18T05:04:30.834Z,99721.13
2022-11-18T05:07:00.427Z,99725.53
2022-11-18T05:09:32.029Z,99722.06
2022-11-18T05:12:20.239Z,99724.63
2022-11-18T05:14:50.544Z,99729.94
2022-11-18T05:17:19.141Z,99730.81
2022-11-18T05:19:47.600Z,99733.44
2022-11-18T05:22:16.077Z,99734.38
2022-11-18T05:24:43.456Z,99737.91
2022-11-18T05:27:11.868Z,99743.16
2022-11-18T05:29:39.302Z,99742.34
2022-11-18T05:32:06.781Z,99745.84
2022-11-18T05:34:34.217Z,99749.38
2022-11-18T05:37:01.700Z,99750.31
2022-11-18T05:39:29.136Z,99755.59
2022-11-18T05:42:15.207Z,99752.19
2022-11-18T05:44:42.658Z,99753.97
2022-11-18T05:47:10.685Z,99758.31
2022-11-18T05:49:38.238Z,99756.56
2022-11-18T05:52:06.815Z,99760.09
2022-11-18T05:54:34.329Z,99761.88
2022-11-18T05:57:02.339Z,99761.06
2022-11-18T05:59:31.356Z,99773.41
2022-11-18T06:02:25.217Z,99778.72
2022-11-18T06:05:02.320Z,99780.69
2022-11-18T06:07:37.993Z,99783.50
2022-11-18T06:10:06.526Z,99794.13
2022-11-18T06:12:42.223Z,99795.16
2022-11-18T06:15:23.320Z,99794.47
2022-11-18T06:18:05.191Z,99804.25
2022-11-18T06:20:36.177Z,99802.88
2022-11-18T06:23:03.649Z,99805.69
2022-11-18T06:25:32.565Z,99804.88
2022-11-18T06:28:02.457Z,99811.09
2022-11-18T06:30:29.913Z,99817.34
2022-11-18T06:32:57.343Z,99816.59
2022-11-18T06:35:25.051Z,99820.19
2022-11-18T06:37:53.708Z,99822.94
2022-11-18T06:40:22.221Z,99825.63
2022-11-18T06:43:08.451Z,99831.00
2022-11-18T06:45:36.061Z,99835.47
2022-11-18T06:48:04.261Z,99837.28
2022-11-18T06:50:31.760Z,99837.38
2022-11-18T06:53:02.241Z,99847.84
2022-11-18T06:55:29.652Z,99844.44
2022-11-18T06:57:57.445Z,99841.88
2022-11-18T07:00:24.997Z,99855.06
2022-11-18T07:02:52.400Z,99863.88
2022-11-18T07:05:19.807Z,99865.69
2022-11-18T07:07:47.358Z,99872.75
2022-11-18T07:10:15.178Z,99876.25
2022-11-18T07:12:42.655Z,99878.06
2022-11-18T07:15:10.618Z,99880.75
2022-11-18T07:17:38.102Z,99880.81
2022-11-18T07:20:06.286Z,99884.31
2022-11-18T07:22:33.725Z,99882.66
2022-11-18T07:25:01.171Z,99880.97
2022-11-18T07:27:28.694Z,99891.44
2022-11-18T07:29:56.110Z,99893.25
2022-11-18T07:32:23.583Z,99896.72
2022-11-18T07:34:50.972Z,99904.56
2022-11-18T07:37:18.464Z,99906.25
2022-11-18T07:39:49.035Z,99911.50
2022-11-18T07:42:16.420Z,99923.72
2022-11-18T07:44:43.814Z,99930.69
2022-11-18T07:47:11.298Z,99926.34
2022-11-18T07:49:38.695Z,99933.31
2022-11-18T07:52:06.244Z,99929.78
2022-11-18T07:54:33.632Z,99932.34
2022-11-18T07:57:01.159Z,99934.00
2022-11-18T07:59:28.607Z,99937.47
2022-11-18T08:01:57.598Z,99941.78
2022-11-18T08:04:25.105Z,99942.53
2022-11-18T08:06:52.618Z,99948.66
2022-11-18T08:09:20.234Z,99955.50
2022-11-18T08:11:47.916Z,99956.31
2022-11-18T08:14:15.396Z,99960.66
2022-11-18T08:16:42.821Z,99966.78
2022-11-18T08:19:10.324Z,99966.72
2022-11-18T08:21:37.814Z,99966.72
2022-11-18T08:24:06.152Z,99971.09
2022-11-18T08:26:33.736Z,99969.28
2022-11-18T08:29:01.228Z,99971.91
2022-11-18T08:31:30.725Z,99979.72
2022-11-18T08:34:02.155Z,99983.16
2022-11-18T08:36:33.438Z,99985.78
2022-11-18T08:39:04.839Z,99983.97
2022-11-18T08:41:38.984Z,99990.00
2022-11-18T08:44:10.118Z,99980.34
2022-11-18T08:46:37.516Z,99982.84
2022-11-18T08:49:05.249Z,99974.91
2022-11-18T08:51:33.005Z,99982.66
2022-11-18T08:54:00.440Z,99981.66
2022-11-18T08:56:28.121Z,99986.75
2022-11-18T08:58:56.944Z,99988.38
2022-11-18T09:01:24.524Z,99988.25
2022-11-18T09:03:53.068Z,99993.38
2022-11-18T09:06:24.846Z,99997.69
2022-11-18T09:08:53.852Z,100008.06
2022-11-18T09:11:24.973Z,100012.31
2022-11-18T09:16:46.579Z,100014.88
2022-11-18T09:19:46.565Z,100019.13
2022-11-18T09:22:05.719Z,100015.56
2022-11-18T09:24:34.615Z,100016.31
2022-11-18T09:27:10.757Z,100021.50
2022-11-18T09:29:39.866Z,100029.38
2022-11-18T09:32:07.270Z,100028.47
2022-11-18T09:34:35.703Z,100035.38
2022-11-18T09:37:06.557Z,100043.97
2022-11-18T09:39:38.395Z,100038.66
2022-11-18T09:42:37.080Z,100054.19
2022-11-18T09:45:32.820Z,100049.59
2022-11-18T09:48:12.121Z,100043.31
2022-11-18T09:50:49.553Z,100051.91
2022-11-18T09:53:21.690Z,100045.56
2022-11-18T09:55:51.111Z,100055.84
2022-11-18T09:58:43.244Z,100054.75
2022-11-18T10:01:17.317Z,100060.59
2022-11-18T10:03:45.126Z,100058.56
2022-11-18T10:06:27.629Z,100060.03
2022-11-18T10:09:35.577Z,100066.75
2022-11-18T10:12:17.081Z,100067.47
2022-11-18T10:15:21.326Z,100074.22
2022-11-18T10:18:18.787Z,100076.63
2022-11-18T10:21:13.921Z,100085.09
2022-11-18T10:24:09.354Z,100084.72
2022-11-18T10:26:40.788Z,100089.66
2022-11-18T10:29:10.857Z,100098.13
2022-11-18T10:32:04.340Z,100096.81
2022-11-18T10:34:35.405Z,100105.25
2022-11-18T10:37:13.304Z,100107.56
2022-11-18T10:39:56.278Z,100106.31
2022-11-18T10:42:45.910Z,100101.53
2022-11-18T10:45:22.485Z,100112.44
2022-11-18T10:48:17.904Z,100106.03
2022-11-18T10:50:55.653Z,100108.44
2022-11-18T10:53:36.979Z,100112.66
2022-11-18T10:56:08.372Z,100108.13
2022-11-18T10:58:42.089Z,100110.63
2022-11-18T11:01:27.061Z,100116.41
2022-11-18T11:04:12.334Z,100112.50
2022-11-18T11:06:39.988Z,100120.72
2022-11-18T11:09:30.004Z,100115.88
2022-11-18T11:12:02.745Z,100115.63
2022-11-18T11:14:56.266Z,100118.91
2022-11-18T11:17:45.584Z,100127.59
2022-11-18T11:20:24.221Z,100122.31
2022-11-18T11:22:51.785Z,100126.69
2022-11-18T11:29:04.891Z,100129.84
2022-11-18T11:31:59.717Z,100128.78
2022-11-18T11:35:06.616Z,100137.47
2022-11-18T11:38:28.022Z,100136.47
2022-11-18T11:41:22.900Z,100139.91
2022-11-18T11:44:21.182Z,100137.06
2022-11-18T11:47:47.948Z,100145.75
2022-11-18T11:51:03.277Z,100144.91
2022-11-18T11:54:15.679Z,100149.31
2022-11-18T11:56:57.796Z,100140.47
2022-11-18T12:00:04.818Z,100144.00
2022-11-18T12:03:00.414Z,100139.56
2022-11-18T12:05:40.570Z,100132.41
2022-11-18T12:08:31.191Z,100136.41
2022-11-18T12:11:11.464Z,100141.38
2022-11-18T12:14:04.625Z,100137.47
2022-11-18T12:16:37.873Z,100144.38
2022-11-18T12:19:18.980Z,100142.50
2022-11-18T12:21:46.598Z,100147.16
2022-11-18T12:24:20.721Z,100148.13
2022-11-18T12:26:51.609Z,100152.59
2022-11-18T12:29:19.435Z,100152.75
2022-11-18T12:31:51.046Z,100156.41
2022-11-18T12:34:32.150Z,100153.00
2022-11-18T12:37:25.297Z,100158.38
2022-11-18T12:39:55.685Z,100161.16
2022-11-18T12:43:04.411Z,100162.94
2022-11-18T12:45:40.921Z,100163.88
2022-11-18T12:48:27.284Z,100167.28
2022-11-18T12:51:15.935Z,100162.88
2022-11-18T12:53:52.119Z,100169.06
2022-11-18T12:56:19.768Z,100168.13
2022-11-18T12:58:54.740Z,100175.25
2022-11-18T13:01:31.978Z,100165.75
2022-11-18T13:04:22.424Z,100171.19
2022-11-18T13:06:54.246Z,100171.19
2022-11-18T13:09:32.297Z,100172.75
2022-11-18T13:12:14.460Z,100169.91
2022-11-18T13:15:03.423Z,100182.97
2022-11-18T13:17:54.622Z,100182.88
2022-11-18T13:20:35.589Z,100183.81
2022-11-18T13:23:33.765Z,100191.78
2022-11-18T13:26:12.221Z,100191.84
2022-11-18T13:29:23.243Z,100198.84
2022-11-18T13:32:20.327Z,100192.63
2022-11-18T13:34:55.402Z,100204.06
2022-11-18T13:37:34.202Z,100195.22
2022-11-18T13:40:02.119Z,100192.63
2022-11-18T13:42:32.630Z,100199.75
2022-11-18T13:45:02.989Z,100196.31
2022-11-18T13:47:45.311Z,100198.97
2022-11-18T13:50:34.444Z,100198.16
2022-11-18T13:53:09.620Z,100193.03
2022-11-18T13:55:47.480Z,100190.53
2022-11-18T13:58:17.980Z,100193.31
2022-11-18T14:00:58.203Z,100194.22
2022-11-18T14:03:46.013Z,100202.25
2022-11-18T14:06:29.168Z,100205.16
2022-11-18T14:09:24.098Z,100200.25
2022-11-18T14:12:05.131Z,100205.00
2022-11-18T14:14:41.893Z,100213.03
2022-11-18T14:17:25.473Z,100213.09
2022-11-18T14:19:59.012Z,100214.06
2022-11-18T14:22:30.893Z,100216.81
2022-11-18T14:25:24.117Z,100219.63
2022-11-18T14:27:54.699Z,100218.00
2022-11-18T14:30:38.468Z,100219.78
2022-11-18T14:33:20.394Z,100213.72
2022-11-18T14:35:56.024Z,100216.47
2022-11-18T14:38:44.111Z,100223.50
2022-11-18T14:41:42.471Z,100216.84
2022-11-18T14:44:13.762Z,100220.50
2022-11-18T14:46:46.258Z,100222.28
2022-11-18T14:49:18.596Z,100221.56
2022-11-18T14:51:46.881Z,100227.91
2022-11-18T14:54:23.811Z,100223.69
2022-11-18T14:57:00.112Z,100236.09
2022-11-18T14:59:28.068Z,100233.59
2022-11-18T15:01:57.139Z,100234.63
2022-11-18T15:04:25.550Z,100242.56
2022-11-18T15:06:53.404Z,100245.31
2022-11-18T15:09:21.576Z,100253.31
2022-11-18T15:11:49.024Z,100255.16
2022-11-18T15:14:16.975Z,100256.13
2022-11-18T15:16:44.874Z,100256.19
2022-11-18T15:19:16.025Z,100263.28
2022-11-18T15:21:45.250Z,100264.25
2022-11-18T15:24:12.774Z,100270.38
2022-11-18T15:26:46.972Z,100273.09
2022-11-18T15:29:24.242Z,100277.63
2022-11-18T15:31:52.028Z,100275.13
2022-11-18T15:34:21.637Z,100279.59
2022-11-18T15:36:49.947Z,100284.94
2022-11-18T15:39:18.486Z,100280.63
2022-11-18T15:41:45.944Z,100285.16
2022-11-18T15:44:13.342Z,100281.72
2022-11-18T15:46:40.814Z,100285.25
2022-11-18T15:49:14.599Z,100284.41
2022-11-18T15:51:42.261Z,100280.13
2022-11-18T15:54:09.972Z,100280.13
2022-11-18T15:56:38.360Z,100278.41
2022-11-18T15:59:12.411Z,100278.47
2022-11-18T16:01:46.800Z,100289.03
2022-11-18T16:04:17.901Z,100286.50
2022-11-18T16:06:47.372Z,100288.41
2022-11-18T16:09:16.637Z,100302.50
2022-11-18T16:12:02.773Z,100298.25
2022-11-18T16:14:30.366Z,100296.59
2022-11-18T16:16:57.874Z,100294.00
2022-11-18T16:19:27.200Z,100303.72
2022-11-18T16:21:56.966Z,100301.22
2022-11-18T16:24:28.800Z,100303.03
2022-11-18T16:26:56.485Z,100306.69
2022-11-18T16:29:24.947Z,100304.09
2022-11-18T16:31:54.153Z,100311.16
2022-11-18T16:34:25.403Z,100307.72
2022-11-18T16:36:57.114Z,100302.59
2022-11-18T16:39:26.524Z,100309.75
2022-11-18T16:42:02.109Z,100314.16
2022-11-18T16:44:34.865Z,100309.75
2022-11-18T16:47:05.329Z,100314.16
2022-11-18T16:49:35.184Z,100322.09
2022-11-18T16:52:02.547Z,100324.75
2022-11-18T16:54:32.041Z,100330.00
2022-11-18T16:56:59.989Z,100335.25
2022-11-18T16:59:31.522Z,100329.19
2022-11-18T17:02:01.968Z,100336.25
2022-11-18T17:04:30.476Z,100334.59
2022-11-18T17:07:00.957Z,100341.69
2022-11-18T17:09:28.369Z,100337.38
2022-11-18T17:11:56.648Z,100337.38
2022-11-18T17:14:25.496Z,100330.41
2022-11-18T17:16:53.520Z,100340.06
2022-11-18T17:19:23.742Z,100340.91
2022-11-18T17:21:52.476Z,100347.03
2022-11-18T17:24:23.167Z,100347.97
2022-11-18T17:26:52.417Z,100349.78
2022-11-18T17:29:20.991Z,100351.59
2022-11-18T17:31:49.029Z,100351.59
2022-11-18T17:34:17.021Z,100356.94
2022-11-18T17:36:44.933Z,100350.91
2022-11-18T17:39:13.310Z,100357.13
2022-11-18T17:41:59.824Z,100358.94
2022-11-18T17:44:28.296Z,100358.97
2022-11-18T17:46:56.067Z,100363.38
2022-11-18T17:49:24.682Z,100355.53
2022-11-18T17:51:52.207Z,100365.19
2022-11-18T17:54:21.561Z,100366.03
2022-11-18T17:56:53.538Z,100374.81
2022-11-18T17:59:23.083Z,100379.22
2022-11-18T18:01:57.382Z,100375.72
2022-11-18T18:04:26.910Z,100376.69
2022-11-18T18:06:55.513Z,100383.69
2022-11-18T18:09:31.062Z,100383.75
2022-11-18T18:12:00.487Z,100382.94
2022-11-18T18:14:28.096Z,100385.59
2022-11-18T18:16:55.563Z,100390.06
2022-11-18T18:19:24.860Z,100395.31
2022-11-18T18:21:53.843Z,100394.47
2022-11-18T18:24:21.787Z,100392.75
2022-11-18T18:26:49.814Z,100385.78
2022-11-18T18:29:17.298Z,100395.47
2022-11-18T18:31:44.756Z,100391.13
2022-11-18T18:34:12.191Z,100397.28
2022-11-18T18:36:39.552Z,100387.66
2022-11-18T18:39:07.048Z,100391.22
2022-11-18T18:41:34.826Z,100396.53
2022-11-18T18:44:02.199Z,100399.22
2022-11-18T18:46:31.332Z,100407.03
2022-11-18T18:49:07.493Z,100405.31
2022-11-18T18:51:46.372Z,100407.97
2022-11-18T18:54:17.128Z,100412.47
2022-11-18T18:56:45.103Z,100419.53
2022-11-18T18:59:12.579Z,100419.47
2022-11-18T19:01:40.302Z,100416.81
2022-11-18T19:04:11.348Z,100415.91
2022-11-18T19:09:27.639Z,100420.50
2022-11-18T19:12:13.722Z,100414.56
2022-11-18T19:14:41.831Z,100420.03
2022-11-18T19:17:12.386Z,100425.47
2022-11-18T19:20:01.618Z,100421.31
2022-11-18T19:22:32.170Z,100428.34
2022-11-18T19:25:11.981Z,100430.13
2022-11-18T19:27:40.354Z,100426.56
2022-11-18T19:30:12.477Z,100435.25
2022-11-18T19:32:42.789Z,100436.19
2022-11-18T19:35:14.156Z,100440.63
2022-11-18T19:37:44.451Z,100439.88
2022-11-18T19:40:13.329Z,100443.50
2022-11-18T19:42:42.230Z,100446.19
2022-11-18T19:45:13.396Z,100445.28
2022-11-18T19:47:40.933Z,100441.03
2022-11-18T19:50:11.559Z,100450.69
2022-11-18T19:52:41.013Z,100457.84
2022-11-18T19:55:11.452Z,100457.91
2022-11-18T19:57:38.798Z,100460.69
2022-11-18T20:00:07.271Z,100465.09
2022-11-18T20:02:38.321Z,100464.34
2022-11-18T20:05:24.961Z,100474.00
2022-11-18T20:08:03.107Z,100474.03
2022-11-18T20:10:30.474Z,100478.44
2022-11-18T20:12:57.824Z,100475.84
2022-11-18T20:15:25.245Z,100480.31
2022-11-18T20:17:55.399Z,100472.53
2022-11-18T20:20:22.786Z,100478.72
2022-11-18T20:22:53.500Z,100483.97
2022-11-18T20:25:21.014Z,100482.28
2022-11-18T20:27:48.980Z,100491.00
2022-11-18T20:30:17.744Z,100483.97
2022-11-18T20:32:47.914Z,100496.09
2022-11-18T20:35:15.354Z,100496.97
2022-11-18T20:37:42.773Z,100502.28
2022-11-18T20:40:10.794Z,100504.97
2022-11-18T20:42:57.162Z,100504.97
2022-11-18T20:45:24.668Z,100512.88
2022-11-18T20:47:52.342Z,100512.09
2022-11-18T20:50:19.743Z,100512.09
2022-11-18T20:52:47.163Z,100512.97
2022-11-18T20:55:20.913Z,100512.09
2022-11-18T20:57:48.290Z,100514.75
2022-11-18T21:00:16.341Z,100516.56
2022-11-18T21:02:43.693Z,100517.47
2022-11-18T21:05:13.734Z,100510.56
2022-11-18T21:07:41.162Z,100509.78
2022-11-18T21:10:09.732Z,100512.63
2022-11-18T21:12:37.103Z,100521.44
2022-11-18T21:15:05.158Z,100525.78
2022-11-18T21:17:32.487Z,100523.28
2022-11-18T21:20:19.832Z,100520.75
2022-11-18T21:22:47.209Z,100520.81
2022-11-18T21:25:14.714Z,100517.38
2022-11-18T21:27:42.063Z,100520.06
2022-11-18T21:30:10.108Z,100521.97
2022-11-18T21:32:37.575Z,100534.28
2022-11-18T21:35:05.362Z,100533.53
2022-11-18T21:37:33.021Z,100540.66
2022-11-18T21:40:00.389Z,100538.16
2022-11-18T21:42:27.720Z,100545.22
2022-11-18T21:44:55.075Z,100547.13
2022-11-18T21:47:23.064Z,100546.38
2022-11-18T21:49:50.415Z,100545.63
2022-11-18T21:52:18.019Z,100550.16
2022-11-18T21:54:45.375Z,100559.94
2022-11-18T21:57:12.739Z,100559.19
2022-11-18T21:59:40.114Z,100561.16
2022-11-18T22:02:14.245Z,100567.34
2022-11-18T22:04:53.715Z,100563.19
2022-11-18T22:07:25.223Z,100571.16
2022-11-18T22:09:52.735Z,100572.16
2022-11-18T22:12:20.096Z,100587.09
2022-11-18T22:14:47.476Z,100588.03
2022-11-18T22:17:14.905Z,100589.03
2022-11-18T22:19:44.912Z,100602.13
2022-11-18T22:22:12.414Z,100608.25
2022-11-18T22:24:45.325Z,100602.25
2022-11-18T22:27:15.642Z,100608.44
2022-11-18T22:29:43.059Z,100611.97
2022-11-18T22:32:10.710Z,100617.34
2022-11-18T22:34:41.773Z,100620.03
2022-11-18T22:37:09.427Z,100612.31
2022-11-18T22:39:37.275Z,100613.22
2022-11-18T22:42:23.190Z,100601.09
2022-11-18T22:44:50.824Z,100615.06
2022-11-18T22:47:18.353Z,100612.50
2022-11-18T22:49:45.734Z,100622.09
2022-11-18T22:52:13.131Z,100626.47
2022-11-18T22:54:40.731Z,100625.56
2022-11-18T22:57:08.645Z,100633.44
2022-11-18T22:59:36.322Z,100636.13
2022-11-18T23:02:07.208Z,100632.69
2022-11-18T23:04:35.088Z,100640.53
2022-11-18T23:07:02.765Z,100642.28
2022-11-18T23:09:30.309Z,100648.41
2022-11-18T23:12:16.280Z,100651.00
2022-11-18T23:14:43.627Z,100657.16
2022-11-18T23:17:10.966Z,100650.25
2022-11-18T23:19:43.423Z,100652.91
2022-11-18T23:22:11.780Z,100655.50
2022-11-18T23:24:39.195Z,100653.81
2022-11-18T23:27:06.617Z,100664.28
2022-11-18T23:29:33.958Z,100672.97
2022-11-18T23:32:01.363Z,100672.13
2022-11-18T23:34:39.685Z,100670.38
2022-11-18T23:37:07.139Z,100669.53
2022-11-18T23:39:34.658Z,100667.78
2022-11-18T23:42:01.997Z,100677.34
2022-11-18T23:44:49.093Z,100684.31
2022-11-18T23:47:17.245Z,100685.16
2022-11-18T23:49:44.728Z,100687.75
2022-11-18T23:52:12.852Z,100687.75
2022-11-18T23:54:40.261Z,100692.13
2022-11-18T23:57:07.658Z,100683.44
2022-11-18T23:59:35.066Z,100681.72
